Time;durP1;ratioP1;P1;durP2;ratioP2;P2;SDS_P1;SDS_P2;PMS_P1;PMS_P2;Temp;Humidity;BMP_temperature;BMP_pressure;BME280_temperature;BME280_humidity;BME280_pressure;Samples;Min_cycle;Max_cycle;Signal;HPM_P1;HPM_P2
2021/09/14 00:01:09;;;;;;;15.15;10.35;;;;;;;15.66;80.37;100793.81;4951877;28;20406;-79
2021/09/14 00:03:36;;;;;;;17.60;11.68;;;;;;;15.67;80.32;100792.63;4944365;29;20051;-79
2021/09/14 00:06:03;;;;;;;13.93;10.40;;;;;;;15.66;80.50;100797.41;4943856;28;20403;-79
2021/09/14 00:08:30;;;;;;;18.83;11.43;;;;;;;15.66;80.48;100783.47;4949544;28;20058;-79
2021/09/14 00:10:57;;;;;;;13.95;10.27;;;;;;;15.67;80.60;100789.84;4945972;29;20047;-79
2021/09/14 00:13:23;;;;;;;17.10;12.02;;;;;;;15.67;80.63;100784.25;4934370;29;20118;-80
2021/09/14 00:15:50;;;;;;;15.60;11.20;;;;;;;15.64;80.78;100785.03;4951709;28;20114;-79
2021/09/14 00:18:17;;;;;;;14.65;10.63;;;;;;;15.62;81.01;100776.22;4934471;28;20133;-79
2021/09/14 00:20:44;;;;;;;15.50;11.07;;;;;;;15.60;80.97;100773.81;4950793;28;20127;-79
2021/09/14 00:23:10;;;;;;;13.60;10.95;;;;;;;15.60;81.24;100773.00;4935100;28;20046;-79
2021/09/14 00:25:37;;;;;;;17.55;10.63;;;;;;;15.57;81.09;100777.34;4935651;29;20162;-79
2021/09/14 00:28:04;;;;;;;14.90;11.43;;;;;;;15.55;81.21;100765.75;4952251;28;20508;-80
2021/09/14 00:30:31;;;;;;;15.07;9.95;;;;;;;15.57;81.45;100773.75;4945005;28;20051;-79
2021/09/14 00:32:57;;;;;;;19.33;10.77;;;;;;;15.57;81.44;100773.75;4951712;28;20506;-80
2021/09/14 00:35:24;;;;;;;16.40;10.85;;;;;;;15.56;81.42;100775.75;4952220;28;20396;-79
2021/09/14 00:37:50;;;;;;;14.20;10.80;;;;;;;15.57;81.61;100773.75;4952367;28;20550;-79
2021/09/14 00:40:17;;;;;;;16.05;11.70;;;;;;;15.59;81.36;100774.19;4952491;28;20043;-79
2021/09/14 00:42:44;;;;;;;21.80;12.88;;;;;;;15.58;81.87;100776.16;4952036;28;20526;-79
2021/09/14 00:45:11;;;;;;;16.88;10.90;;;;;;;15.60;81.72;100768.22;4951941;28;20484;-79
2021/09/14 00:47:37;;;;;;;16.98;12.52;;;;;;;15.61;81.88;100764.25;4951429;28;20044;-79
2021/09/14 00:50:06;;;;;;;21.50;12.55;;;;;;;15.58;82.03;100770.59;4952268;28;20110;-79
2021/09/14 00:52:34;;;;;;;20.27;13.75;;;;;;;15.57;82.13;100766.19;4948062;29;20414;-79
2021/09/14 00:55:03;;;;;;;18.95;13.70;;;;;;;15.56;82.22;100761.00;4951655;28;20118;-79
2021/09/14 00:57:30;;;;;;;24.92;16.27;;;;;;;15.57;82.32;100759.78;4955218;28;20049;-79
2021/09/14 00:59:57;;;;;;;23.95;15.40;;;;;;;15.56;82.53;100756.22;4951402;28;20137;-79
2021/09/14 01:02:24;;;;;;;24.52;16.38;;;;;;;15.55;82.69;100765.75;4951257;28;20045;-79
2021/09/14 01:04:51;;;;;;;38.47;16.98;;;;;;;15.55;82.90;100760.19;4951955;28;20491;-79
2021/09/14 01:07:18;;;;;;;26.40;16.08;;;;;;;15.55;82.81;100762.97;4951096;28;20046;-79
2021/09/14 01:09:46;;;;;;;27.92;17.20;;;;;;;15.55;83.33;100762.16;4952409;28;20118;-79
2021/09/14 01:12:14;;;;;;;21.83;15.38;;;;;;;15.56;83.13;100761.00;4951855;28;20043;-79
2021/09/14 01:14:51;;;;;;;28.30;18.35;;;;;;;15.54;83.33;100758.56;4934057;28;20047;-80
2021/09/14 01:17:18;;;;;;;26.50;17.05;;;;;;;15.54;83.36;100757.78;4949999;28;20474;-79
2021/09/14 01:19:44;;;;;;;31.60;17.95;;;;;;;15.54;83.51;100747.41;4953871;28;20244;-79
2021/09/14 01:22:11;;;;;;;29.33;18.48;;;;;;;15.56;83.67;100755.41;4946886;29;20050;-79
2021/09/14 01:24:38;;;;;;;26.83;17.40;;;;;;;15.56;83.75;100750.63;4950848;28;20051;-79
2021/09/14 01:27:04;;;;;;;29.95;19.55;;;;;;;15.57;83.85;100751.41;4936981;28;20051;-79
2021/09/14 01:32:17;;;;;;;28.58;17.00;;;;;;;15.60;84.16;100750.66;4957084;28;20054;-79
2021/09/14 01:34:43;;;;;;;31.27;20.80;;;;;;;15.61;84.30;100746.69;4954081;28;20555;-79
2021/09/14 01:37:10;;;;;;;29.25;20.40;;;;;;;15.62;84.25;100743.53;4953587;28;20071;-80
2021/09/14 01:39:37;;;;;;;30.10;19.67;;;;;;;15.64;84.51;100743.16;4912717;29;20055;-79
2021/09/14 01:42:03;;;;;;;33.85;19.02;;;;;;;15.63;84.62;100747.94;4951031;28;20129;-79
2021/09/14 01:44:30;;;;;;;28.45;19.27;;;;;;;15.64;84.49;100738.38;4937237;29;20065;-79
2021/09/14 01:46:57;;;;;;;31.17;19.20;;;;;;;15.68;84.75;100735.63;4938999;29;20127;-79
2021/09/14 01:49:24;;;;;;;33.83;21.83;;;;;;;15.67;84.70;100734.81;4953104;29;20086;-79
2021/09/14 01:51:50;;;;;;;30.00;19.48;;;;;;;15.68;84.84;100730.84;4951547;29;20049;-79
2021/09/14 01:54:17;;;;;;;30.25;19.63;;;;;;;15.68;85.01;100724.44;4952880;29;20050;-79
2021/09/14 01:56:44;;;;;;;27.80;18.65;;;;;;;15.66;84.93;100727.63;4951333;28;20043;-79
2021/09/14 01:59:13;;;;;;;26.45;18.40;;;;;;;15.68;85.07;100724.44;4959167;28;20050;-79
2021/09/14 02:01:43;;;;;;;29.38;20.75;;;;;;;15.67;85.21;100722.88;4938516;28;20050;-79
2021/09/14 02:07:00;;;;;;;31.58;20.15;;;;;;;15.70;84.98;100727.69;4954418;28;20058;-79
2021/09/14 02:33:52;;;;;;;20.58;15.48;;;;;;;15.72;85.25;100728.09;4947618;28;20090;-79
2021/09/14 02:58:46;;;;;;;19.92;13.77;;;;;;;15.71;84.86;100712.53;4950788;28;20051;-79
2021/09/14 03:01:14;;;;;;;26.40;12.75;;;;;;;15.72;84.71;100708.56;4934405;29;20484;-79
2021/09/14 03:03:44;;;;;;;17.33;12.13;;;;;;;15.72;84.80;100703.78;4935775;28;20063;-79
2021/09/14 03:06:11;;;;;;;20.60;12.20;;;;;;;15.74;84.80;100712.59;4957813;28;20127;-79
2021/09/14 03:08:39;;;;;;;17.05;11.60;;;;;;;15.74;84.72;100706.19;4956051;28;20055;-79
2021/09/14 03:11:07;;;;;;;17.70;11.50;;;;;;;15.76;84.80;100703.81;4937065;29;20043;-79
2021/09/14 03:13:35;;;;;;;13.25;10.43;;;;;;;15.74;84.65;100706.19;4953156;28;20385;-79
2021/09/14 03:16:02;;;;;;;18.08;11.45;;;;;;;15.76;84.68;100706.59;4932819;29;20054;-80
2021/09/14 03:18:28;;;;;;;15.65;10.88;;;;;;;15.75;84.54;100696.66;4956259;28;20047;-79
2021/09/14 03:20:55;;;;;;;13.32;9.68;;;;;;;15.75;84.62;100700.22;4952663;28;20039;-79
2021/09/14 03:23:22;;;;;;;14.73;10.73;;;;;;;15.77;84.39;100694.28;4952934;28;20108;-79
2021/09/14 03:25:49;;;;;;;13.57;10.10;;;;;;;15.76;84.47;100690.66;4951333;28;20061;-80
2021/09/14 03:28:16;;;;;;;16.05;10.88;;;;;;;15.75;84.49;100685.47;4933640;28;20130;-79
2021/09/14 03:30:43;;;;;;;16.67;10.63;;;;;;;15.77;84.16;100700.66;4949801;28;20059;-79
2021/09/14 03:33:10;;;;;;;12.93;9.35;;;;;;;15.77;84.28;100686.69;4935747;28;20054;-79
2021/09/14 03:35:37;;;;;;;13.40;10.05;;;;;;;15.77;84.17;100683.09;4952804;28;20050;-79
2021/09/14 03:38:04;;;;;;;15.20;9.93;;;;;;;15.73;84.42;100679.44;4955051;28;20375;-79
2021/09/14 03:40:31;;;;;;;13.55;9.10;;;;;;;15.75;84.37;100674.31;4952308;28;20050;-79
2021/09/14 03:42:57;;;;;;;17.27;9.80;;;;;;;15.76;84.25;100687.06;4953391;28;20075;-79
2021/09/14 03:45:24;;;;;;;10.00;8.68;;;;;;;15.74;84.06;100673.50;4960433;28;20035;-79
2021/09/14 03:47:51;;;;;;;11.18;9.35;;;;;;;15.77;84.11;100677.53;4950912;28;20062;-79
2021/09/14 03:50:18;;;;;;;11.68;8.45;;;;;;;15.77;83.62;100669.16;4952484;28;20071;-79
2021/09/14 03:52:45;;;;;;;15.25;9.63;;;;;;;15.80;83.91;100676.75;4961156;28;20039;-79
2021/09/14 03:55:12;;;;;;;20.17;9.88;;;;;;;15.81;83.72;100675.56;4952479;28;20050;-79
2021/09/14 03:57:38;;;;;;;12.60;9.63;;;;;;;15.80;83.80;100679.56;4951685;28;20118;-79
2021/09/14 04:00:06;;;;;;;14.80;10.25;;;;;;;15.79;83.83;100673.16;4951318;28;20054;-81
2021/09/14 04:02:37;;;;;;;13.90;11.23;;;;;;;15.78;83.70;100682.72;4959376;28;20043;-79
2021/09/14 04:05:21;;;;;;;13.48;10.40;;;;;;;15.79;83.91;100672.34;4953209;28;20061;-79
2021/09/14 04:08:50;;;;;;;14.30;10.98;;;;;;;15.79;83.88;100670.38;4952233;28;20066;-79
2021/09/14 04:10:43;;;;;;;17.23;11.82;;;;;;;15.78;84.00;100673.53;4952066;28;20074;-80
2021/09/14 04:13:11;;;;;;;15.05;10.38;;;;;;;15.79;83.87;100672.34;4957611;28;20172;-79
2021/09/14 04:15:37;;;;;;;13.88;10.63;;;;;;;15.79;83.86;100672.34;4935268;28;20053;-79
2021/09/14 04:18:04;;;;;;;19.50;11.43;;;;;;;15.79;83.88;100669.56;4951814;28;20047;-79
2021/09/14 04:20:32;;;;;;;18.33;11.40;;;;;;;15.80;83.86;100676.75;4956694;28;20047;-79
2021/09/14 04:22:59;;;;;;;13.65;10.48;;;;;;;15.81;83.87;100678.34;4948948;28;20044;-80
2021/09/14 04:25:26;;;;;;;16.85;10.70;;;;;;;15.80;84.12;100668.38;4952255;28;20061;-79
2021/09/14 04:27:53;;;;;;;14.30;10.95;;;;;;;15.81;84.03;100673.56;4934605;28;20138;-80
2021/09/14 04:30:20;;;;;;;13.93;11.23;;;;;;;15.82;84.04;100674.38;4951804;28;20144;-79
2021/09/14 04:32:47;;;;;;;15.75;11.10;;;;;;;15.81;84.24;100678.34;4949847;28;20074;-79
2021/09/14 04:35:13;;;;;;;14.80;11.30;;;;;;;15.82;84.06;100672.41;4961696;28;20486;-79
2021/09/14 04:37:40;;;;;;;13.98;9.80;;;;;;;15.81;84.08;100673.56;4966899;28;20074;-79
2021/09/14 04:40:08;;;;;;;13.95;10.65;;;;;;;15.83;84.08;100676.00;4949964;28;20051;-79
2021/09/14 04:42:34;;;;;;;12.93;10.23;;;;;;;15.82;83.94;100675.19;4956155;28;20051;-79
2021/09/14 04:45:01;;;;;;;17.20;10.93;;;;;;;15.81;83.90;100672.75;4940782;28;20513;-79
2021/09/14 04:47:29;;;;;;;15.63;11.38;;;;;;;15.82;84.16;100671.59;4941469;28;20074;-79
2021/09/14 04:49:56;;;;;;;17.73;11.68;;;;;;;15.82;84.09;100671.59;4962074;28;20048;-79
2021/09/14 04:52:22;;;;;;;14.32;11.50;;;;;;;15.81;84.17;100667.19;4953918;28;20097;-79
2021/09/14 04:54:49;;;;;;;16.45;11.55;;;;;;;15.81;83.94;100669.97;4939303;28;20499;-79
2021/09/14 04:57:16;;;;;;;17.42;11.35;;;;;;;15.79;84.21;100670.38;4959121;28;20046;-79
2021/09/14 04:59:42;;;;;;;15.90;10.65;;;;;;;15.78;84.09;100668.75;4938464;28;20415;-79
2021/09/14 05:02:09;;;;;;;19.02;11.25;;;;;;;15.79;84.26;100663.97;4963366;28;20053;-79
2021/09/14 05:04:36;;;;;;;18.50;11.70;;;;;;;15.79;84.19;100667.56;4963981;28;20053;-79
2021/09/14 05:07:03;;;;;;;13.90;10.98;;;;;;;15.80;84.17;100666.41;4961712;28;20086;-79
2021/09/14 05:09:29;;;;;;;16.83;11.70;;;;;;;15.79;84.05;100666.78;4937624;28;20496;-79
2021/09/14 05:11:56;;;;;;;16.80;10.77;;;;;;;15.80;84.04;100660.00;4940029;28;20504;-79
2021/09/14 05:14:23;;;;;;;20.65;11.05;;;;;;;15.78;84.00;100662.34;4951571;28;20149;-79
2021/09/14 05:16:50;;;;;;;17.67;11.48;;;;;;;15.77;84.15;100661.59;4956220;28;20732;-80
2021/09/14 05:19:24;;;;;;;16.98;11.82;;;;;;;15.78;84.12;100662.34;4954307;28;20049;-79
2021/09/14 05:21:51;;;;;;;14.00;11.25;;;;;;;15.76;84.17;100657.16;4951015;28;20040;-79
2021/09/14 05:24:17;;;;;;;13.75;10.95;;;;;;;15.76;84.54;100661.94;4958993;28;20051;-79
2021/09/14 05:26:44;;;;;;;21.65;12.82;;;;;;;15.78;84.28;100665.16;4954857;28;20057;-79
2021/09/14 05:29:11;;;;;;;14.63;11.15;;;;;;;15.77;84.30;100656.00;4956600;28;20062;-79
2021/09/14 05:31:37;;;;;;;14.85;11.45;;;;;;;15.78;84.12;100656.78;4968409;28;20047;-79
2021/09/14 05:34:04;;;;;;;16.90;11.80;;;;;;;15.79;84.46;100655.59;4950680;28;20070;-80
2021/09/14 05:36:31;;;;;;;22.50;13.10;;;;;;;15.78;84.39;100653.97;4951321;28;20054;-79
2021/09/14 05:38:58;;;;;;;21.30;12.25;;;;;;;15.77;84.68;100655.19;4964620;28;20043;-79
2021/09/14 05:41:25;;;;;;;20.27;12.23;;;;;;;15.75;84.85;100654.78;4952898;28;20038;-80
2021/09/14 05:43:51;;;;;;;21.13;12.80;;;;;;;15.74;84.89;100656.75;4958037;28;20043;-80
2021/09/14 05:46:18;;;;;;;20.95;14.43;;;;;;;15.73;85.09;100659.91;4965779;28;20051;-80
2021/09/14 05:48:45;;;;;;;16.92;12.60;;;;;;;15.72;85.07;100659.13;4954950;28;20050;-79
2021/09/14 05:51:11;;;;;;;19.10;13.05;;;;;;;15.73;85.33;100665.50;4964495;28;20041;-79
2021/09/14 05:53:38;;;;;;;18.63;11.38;;;;;;;15.71;85.55;100673.47;4954690;28;20586;-80
2021/09/14 05:56:05;;;;;;;18.13;13.35;;;;;;;15.71;85.62;100665.91;4942119;29;20051;-79
2021/09/14 05:58:32;;;;;;;16.55;12.85;;;;;;;15.73;85.46;100665.50;4937907;29;20043;-79
2021/09/14 06:00:58;;;;;;;21.95;12.90;;;;;;;15.72;85.48;100659.13;4957344;28;20043;-79
2021/09/14 06:03:35;;;;;;;17.63;12.27;;;;;;;15.70;85.53;100661.47;4938061;28;20054;-79
2021/09/14 06:06:01;;;;;;;15.63;11.98;;;;;;;15.70;85.85;100661.47;4964843;28;20039;-80
2021/09/14 06:08:29;;;;;;;19.02;12.63;;;;;;;15.71;85.85;100667.88;4962845;28;20106;-79
2021/09/14 06:10:56;;;;;;;17.60;11.27;;;;;;;15.72;85.87;100669.50;4963250;28;20045;-80
2021/09/14 06:13:23;;;;;;;17.48;12.50;;;;;;;15.71;85.77;100662.28;4938326;29;20514;-80
2021/09/14 06:15:50;;;;;;;18.73;11.77;;;;;;;15.70;85.89;100672.66;4937336;28;20055;-79
2021/09/14 06:18:16;;;;;;;16.98;12.35;;;;;;;15.70;85.90;100666.28;4937867;29;20063;-80
2021/09/14 06:20:43;;;;;;;19.48;13.50;;;;;;;15.72;86.21;100675.06;4937012;29;20061;-79
2021/09/14 06:23:10;;;;;;;20.13;14.00;;;;;;;15.72;86.16;100675.88;4955129;28;20046;-79
2021/09/14 06:25:37;;;;;;;16.75;12.45;;;;;;;15.73;86.58;100674.69;4953374;28;20075;-80
2021/09/14 06:28:05;;;;;;;18.98;12.75;;;;;;;15.77;86.24;100677.53;4954777;28;20094;-80
2021/09/14 06:30:32;;;;;;;19.42;11.57;;;;;;;15.79;86.30;100675.16;4954188;28;20046;-80
2021/09/14 06:32:58;;;;;;;18.45;13.05;;;;;;;15.81;86.19;100672.75;4939921;28;20039;-80
2021/09/14 06:35:25;;;;;;;20.80;13.65;;;;;;;15.84;86.33;100680.38;4936570;28;20073;-79
2021/09/14 06:37:52;;;;;;;21.58;12.73;;;;;;;15.84;86.32;100672.81;4953392;28;20480;-80
2021/09/14 06:40:19;;;;;;;20.70;11.73;;;;;;;15.86;86.19;100678.00;4960176;28;20047;-80
2021/09/14 06:42:45;;;;;;;20.00;14.32;;;;;;;15.87;86.32;100676.81;4933504;29;20500;-80
2021/09/14 06:45:12;;;;;;;17.83;11.93;;;;;;;15.88;86.34;100683.22;4932813;29;20051;-80
2021/09/14 06:47:42;;;;;;;20.23;12.27;;;;;;;15.89;86.41;100685.63;4952279;29;20039;-79
2021/09/14 06:50:10;;;;;;;19.42;12.70;;;;;;;15.92;86.36;100690.44;4952790;28;20121;-79
2021/09/14 06:52:39;;;;;;;19.80;13.13;;;;;;;15.95;86.31;100695.25;4952042;28;20052;-81
2021/09/14 06:55:07;;;;;;;16.67;11.27;;;;;;;15.97;86.41;100697.66;4955157;28;20058;-80
2021/09/14 06:57:34;;;;;;;16.85;12.63;;;;;;;15.97;86.66;100695.69;4953482;28;20043;-80
2021/09/14 07:00:01;;;;;;;16.05;10.98;;;;;;;15.98;86.40;100694.50;4950458;28;20047;-81
2021/09/14 07:02:28;;;;;;;10.85;8.95;;;;;;;15.98;86.40;100700.09;4939959;29;20039;-80
2021/09/14 07:04:55;;;;;;;16.77;11.25;;;;;;;16.02;86.48;100700.91;4951668;28;20051;-80
2021/09/14 07:07:22;;;;;;;16.25;10.80;;;;;;;16.05;86.29;100713.31;4957437;28;20082;-81
2021/09/14 07:09:48;;;;;;;15.75;11.00;;;;;;;16.07;86.47;100703.34;4953702;28;20503;-80
2021/09/14 07:12:15;;;;;;;16.60;11.02;;;;;;;16.11;86.30;100722.97;4959896;28;20502;-81
2021/09/14 07:14:42;;;;;;;16.58;12.10;;;;;;;16.13;86.19;100718.59;4933721;29;20071;-80
2021/09/14 07:17:09;;;;;;;15.43;11.95;;;;;;;16.14;86.25;100720.22;4950099;28;20427;-80
2021/09/14 07:19:36;;;;;;;15.15;11.55;;;;;;;16.17;86.13;100730.63;4952153;28;20129;-80
2021/09/14 07:22:03;;;;;;;15.63;10.00;;;;;;;16.17;85.95;100736.22;4934133;28;20042;-80
2021/09/14 07:24:31;;;;;;;14.05;10.43;;;;;;;16.17;85.87;100730.63;4949545;28;20073;-80
2021/09/14 07:26:58;;;;;;;12.82;9.63;;;;;;;16.17;85.87;100730.63;4952173;28;20043;-79
2021/09/14 07:29:25;;;;;;;12.77;10.18;;;;;;;16.16;85.79;100729.00;4932849;28;20048;-80
2021/09/14 07:31:52;;;;;;;13.88;10.13;;;;;;;16.17;85.85;100727.81;4946344;28;20070;-80
2021/09/14 07:34:19;;;;;;;12.55;10.18;;;;;;;16.20;85.58;100729.81;4937173;28;20050;-80
2021/09/14 07:36:46;;;;;;;13.60;10.80;;;;;;;16.21;85.76;100723.06;4950052;28;20091;-80
2021/09/14 07:39:12;;;;;;;14.07;10.77;;;;;;;16.24;85.63;100727.88;4958075;28;20043;-80
2021/09/14 07:41:41;;;;;;;12.90;10.98;;;;;;;16.27;85.62;100729.13;4954878;28;20047;-80
2021/09/14 07:44:09;;;;;;;12.30;9.63;;;;;;;16.33;85.69;100727.59;4941479;28;20102;-80
2021/09/14 07:46:36;;;;;;;13.90;11.18;;;;;;;16.34;85.39;100729.97;4943170;28;20617;-80
2021/09/14 07:49:03;;;;;;;11.48;9.82;;;;;;;16.40;85.44;100730.44;4935985;29;20061;-80
2021/09/14 07:51:29;;;;;;;14.95;10.90;;;;;;;16.48;85.35;100736.91;4947256;28;20049;-78
2021/09/14 07:53:56;;;;;;;12.23;10.10;;;;;;;16.55;85.32;100729.41;4919309;29;20053;-79
2021/09/14 07:56:23;;;;;;;14.90;10.70;;;;;;;16.61;85.15;100732.66;4951508;28;20047;-79
2021/09/14 07:58:50;;;;;;;14.93;11.15;;;;;;;16.64;85.11;100731.88;4946881;28;20052;-79
2021/09/14 08:01:16;;;;;;;13.88;10.32;;;;;;;16.68;84.66;100735.53;4933804;28;20051;-79
2021/09/14 08:03:43;;;;;;;18.00;11.73;;;;;;;16.68;84.64;100736.31;4950178;28;20047;-79
2021/09/14 08:06:10;;;;;;;21.52;11.73;;;;;;;16.72;84.86;100734.34;4950747;28;20043;-79
2021/09/14 08:08:37;;;;;;;12.27;10.65;;;;;;;16.76;84.77;100734.41;4950777;28;20137;-79
2021/09/14 08:11:04;;;;;;;16.85;10.88;;;;;;;16.78;84.52;100734.81;4954108;28;20035;-80
2021/09/14 08:13:35;;;;;;;13.83;10.13;;;;;;;16.82;84.42;100730.03;4944439;29;20058;-80
2021/09/14 08:16:03;;;;;;;13.50;9.68;;;;;;;16.87;84.45;100729.66;4939087;29;20057;-79
2021/09/14 08:18:30;;;;;;;13.45;10.65;;;;;;;16.96;84.39;100744.13;4935106;29;20427;-79
2021/09/14 08:20:57;;;;;;;12.18;10.10;;;;;;;17.05;84.19;100741.78;4951514;28;20039;-80
2021/09/14 08:23:24;;;;;;;14.15;9.82;;;;;;;17.13;84.33;100737.84;4939658;28;20039;-80
2021/09/14 08:25:51;;;;;;;12.93;10.30;;;;;;;17.21;84.06;100739.50;4952886;28;20504;-79
2021/09/14 08:28:18;;;;;;;14.95;8.65;;;;;;;17.37;83.87;100734.41;4938443;28;20576;-79
2021/09/14 08:30:45;;;;;;;12.73;8.93;;;;;;;17.48;83.72;100729.66;4917831;29;20056;-81
2021/09/14 08:33:11;;;;;;;12.93;9.30;;;;;;;17.62;84.11;100737.34;4949330;28;20047;-80
2021/09/14 08:35:40;;;;;;;12.38;8.65;;;;;;;17.76;83.95;100731.03;4963531;28;20051;-81
2021/09/14 08:38:06;;;;;;;14.82;9.68;;;;;;;17.82;83.78;100729.44;4961454;28;20475;-79
2021/09/14 08:40:33;;;;;;;10.05;8.98;;;;;;;17.73;83.23;100731.81;4928565;28;20053;-80
2021/09/14 08:43:03;;;;;;;17.02;9.43;;;;;;;17.63;82.63;100727.78;4950275;28;20039;-79
2021/09/14 08:45:30;;;;;;;13.65;9.30;;;;;;;17.58;82.25;100731.72;4941955;28;20058;-79
2021/09/14 08:47:57;;;;;;;12.10;8.15;;;;;;;17.58;82.74;100723.34;4939146;28;20059;-79
2021/09/14 08:50:24;;;;;;;10.95;8.77;;;;;;;17.69;84.10;100730.97;4938022;29;20102;-79
2021/09/14 08:52:51;;;;;;;10.85;8.23;;;;;;;17.82;84.85;100718.25;4963225;28;20045;-80
2021/09/14 08:55:21;;;;;;;10.82;7.35;;;;;;;17.98;85.25;100732.69;4955292;28;20399;-80
2021/09/14 08:57:55;;;;;;;8.98;6.70;;;;;;;18.27;85.39;100731.56;4955840;28;20109;-80
2021/09/14 09:00:39;;;;;;;8.90;6.97;;;;;;;18.72;83.74;100728.03;4952866;28;20095;-80
2021/09/14 09:03:07;;;;;;;10.98;6.32;;;;;;;19.33;84.37;100737.16;4956249;28;20502;-79
2021/09/14 09:05:36;;;;;;;8.02;6.57;;;;;;;20.06;81.62;100732.53;4962227;28;20074;-80
2021/09/14 09:08:15;;;;;;;11.07;6.15;;;;;;;20.58;78.04;100724.97;4948867;28;20063;-80
2021/09/14 09:10:41;;;;;;;7.55;5.97;;;;;;;21.11;75.44;100733.78;4964750;28;20130;-79
2021/09/14 09:13:08;;;;;;;7.07;5.82;;;;;;;21.61;73.28;100731.22;4959316;28;20505;-80
2021/09/14 09:15:35;;;;;;;7.70;5.85;;;;;;;22.14;71.10;100736.19;4954024;28;20042;-80
2021/09/14 09:18:13;;;;;;;7.82;5.18;;;;;;;22.74;68.57;100735.31;4946895;28;20051;-80
2021/09/14 09:20:42;;;;;;;5.85;5.03;;;;;;;23.09;67.46;100733.91;4954415;28;20047;-79
2021/09/14 09:23:18;;;;;;;9.48;5.88;;;;;;;23.42;65.11;100737.75;4931951;29;20067;-78
2021/09/14 09:25:45;;;;;;;5.22;4.72;;;;;;;23.80;64.02;100733.34;4947228;28;20417;-78
2021/09/14 09:28:17;;;;;;;6.10;4.65;;;;;;;24.16;62.79;100736.25;4955869;28;20419;-79
2021/09/14 09:30:54;;;;;;;6.13;4.50;;;;;;;24.48;60.69;100744.00;4963159;28;20053;-80
2021/09/14 09:33:26;;;;;;;5.07;4.32;;;;;;;24.77;58.55;100742.88;4938730;28;20142;-81
2021/09/14 09:36:07;;;;;;;4.70;4.18;;;;;;;24.99;57.59;100731.03;4955181;28;20481;-80
2021/09/14 09:38:51;;;;;;;5.75;4.13;;;;;;;25.17;55.76;100739.88;4957159;28;20109;-80
2021/09/14 09:41:19;;;;;;;4.38;3.00;;;;;;;25.29;56.27;100733.47;4951429;28;20046;-80
2021/09/14 09:43:47;;;;;;;3.85;3.20;;;;;;;25.53;55.41;100737.69;4961667;28;20045;-80
2021/09/14 09:46:23;;;;;;;3.75;3.13;;;;;;;25.59;54.25;100743.59;4955777;28;20039;-80
2021/09/14 09:48:49;;;;;;;5.20;3.05;;;;;;;25.59;53.62;100738.72;4937683;28;20126;-80
2021/09/14 09:51:17;;;;;;;5.47;3.20;;;;;;;25.53;52.98;100740.50;4937679;29;20404;-80
2021/09/14 09:53:46;;;;;;;5.95;3.25;;;;;;;25.55;52.48;100740.84;4951272;28;20043;-80
2021/09/14 09:56:15;;;;;;;4.63;3.13;;;;;;;25.50;52.18;100727.22;4946869;28;20552;-81
2021/09/14 09:58:44;;;;;;;4.80;3.03;;;;;;;25.55;51.58;100738.03;4938104;29;20058;-80
2021/09/14 10:01:16;;;;;;;8.80;4.38;;;;;;;25.67;50.37;100731.63;4957330;28;20035;-80
2021/09/14 10:03:52;;;;;;;2.45;2.25;;;;;;;25.67;50.86;100727.97;4965629;28;20062;-82
2021/09/14 10:06:21;;;;;;;3.22;2.92;;;;;;;25.83;50.74;100736.44;4948603;28;20078;-80
2021/09/14 10:08:54;;;;;;;5.47;3.53;;;;;;;25.90;50.39;100731.34;4938094;28;20054;-80
2021/09/14 10:11:28;;;;;;;4.97;2.88;;;;;;;25.97;49.88;100728.28;4955113;28;20118;-80
2021/09/14 10:14:05;;;;;;;4.22;3.00;;;;;;;26.07;49.22;100731.25;4949239;28;20476;-80
2021/09/14 10:16:35;;;;;;;4.13;3.17;;;;;;;26.07;49.87;100725.59;4953096;28;20054;-80
2021/09/14 10:19:17;;;;;;;3.17;2.88;;;;;;;25.95;47.95;100727.94;4942919;29;20051;-80
2021/09/14 10:21:59;;;;;;;3.92;3.50;;;;;;;25.89;47.52;100712.72;4957547;28;20137;-81
2021/09/14 10:24:26;;;;;;;3.22;2.92;;;;;;;25.76;49.64;100711.88;4953965;28;20045;-80
2021/09/14 10:27:14;;;;;;;5.78;3.58;;;;;;;25.75;47.40;100709.50;4941461;28;20046;-81
2021/09/14 10:29:41;;;;;;;4.03;3.40;;;;;;;25.65;48.78;100719.13;4952863;28;20134;-81
2021/09/14 10:32:13;;;;;;;5.95;3.58;;;;;;;25.44;48.75;100715.59;4961740;28;20045;-80
2021/09/14 10:34:55;;;;;;;4.75;4.10;;;;;;;25.43;48.44;100711.19;4955108;28;20053;-80
2021/09/14 10:37:30;;;;;;;5.45;3.67;;;;;;;25.31;49.33;100722.50;4951544;28;20513;-80
2021/09/14 10:40:14;;;;;;;4.40;3.75;;;;;;;25.23;49.66;100724.69;4936420;29;20051;-80
2021/09/14 10:42:46;;;;;;;6.57;4.45;;;;;;;25.13;50.17;100728.63;4952842;28;20409;-80
2021/09/14 10:45:16;;;;;;;5.53;4.03;;;;;;;25.05;50.70;100732.88;4948461;28;20043;-80
2021/09/14 10:47:47;;;;;;;6.80;4.13;;;;;;;24.97;50.76;100736.34;4927616;28;20439;-80
2021/09/14 10:50:26;;;;;;;4.28;3.50;;;;;;;24.91;50.89;100738.13;4937444;28;20039;-80
2021/09/14 10:53:00;;;;;;;6.55;3.95;;;;;;;24.79;51.10;100743.25;4952939;28;20050;-80
2021/09/14 10:55:30;;;;;;;4.85;3.63;;;;;;;24.40;51.42;100749.03;4935821;29;20051;-79
2021/09/14 10:58:00;;;;;;;4.57;3.38;;;;;;;24.15;51.84;100743.13;4956100;28;20166;-80
2021/09/14 11:00:32;;;;;;;6.00;4.43;;;;;;;23.98;52.42;100733.78;4952409;28;20070;-79
2021/09/14 11:03:02;;;;;;;6.28;4.15;;;;;;;23.78;53.19;100724.50;4934674;29;20098;-79
2021/09/14 11:05:31;;;;;;;5.40;3.78;;;;;;;23.55;53.52;100733.88;4947390;28;20103;-79
2021/09/14 11:08:03;;;;;;;4.47;4.05;;;;;;;23.36;53.89;100731.78;4935509;29;20066;-80
2021/09/14 11:10:41;;;;;;;5.00;4.00;;;;;;;23.16;54.48;100733.78;4951207;28;20047;-80
2021/09/14 11:13:17;;;;;;;5.18;3.95;;;;;;;22.99;54.95;100718.75;4955286;28;20043;-80
2021/09/14 11:15:44;;;;;;;6.22;4.10;;;;;;;22.77;55.58;100722.38;4951091;28;20469;-80
2021/09/14 11:18:10;;;;;;;6.03;4.72;;;;;;;22.46;56.36;100715.97;4947303;28;20145;-81
2021/09/14 11:20:37;;;;;;;4.88;3.50;;;;;;;22.24;56.95;100723.97;4951288;28;20071;-80
2021/09/14 11:23:05;;;;;;;4.80;4.40;;;;;;;21.98;57.45;100719.09;4951134;28;20385;-80
2021/09/14 11:25:33;;;;;;;5.13;3.88;;;;;;;21.83;58.23;100715.66;4956463;28;20043;-80
2021/09/14 11:28:01;;;;;;;5.07;3.88;;;;;;;21.61;58.46;100714.31;4949215;28;20452;-80
2021/09/14 11:30:30;;;;;;;5.30;4.15;;;;;;;21.36;59.02;100715.84;4955024;28;20051;-80
2021/09/14 11:32:59;;;;;;;7.95;4.78;;;;;;;21.27;59.71;100707.06;4938681;29;20076;-81
2021/09/14 11:35:36;;;;;;;5.13;4.63;;;;;;;21.20;60.34;100708.75;4957295;28;20130;-80
2021/09/14 11:38:08;;;;;;;4.57;4.13;;;;;;;21.11;60.32;100708.44;4953281;28;20480;-80
2021/09/14 11:40:53;;;;;;;5.32;4.70;;;;;;;21.04;60.91;100708.50;4951579;28;20047;-80
2021/09/14 11:43:25;;;;;;;6.70;4.38;;;;;;;20.99;60.97;100716.59;4920564;29;20145;-80
2021/09/14 11:45:53;;;;;;;5.40;4.03;;;;;;;20.99;61.12;100711.75;4952914;28;20039;-80
2021/09/14 11:48:25;;;;;;;5.72;4.25;;;;;;;20.95;60.72;100710.19;4966121;28;20043;-80
2021/09/14 11:51:02;;;;;;;5.28;3.90;;;;;;;20.85;61.35;100706.25;4940899;29;20039;-80
2021/09/14 11:53:29;;;;;;;3.55;3.25;;;;;;;20.79;61.18;100710.72;4956689;28;20042;-79
2021/09/14 11:55:57;;;;;;;4.07;3.17;;;;;;;20.78;61.16;100711.97;4952026;28;20050;-81
2021/09/14 11:58:28;;;;;;;4.45;3.85;;;;;;;20.74;61.39;100702.72;4935220;29;20039;-81
2021/09/14 12:00:58;;;;;;;5.13;3.83;;;;;;;20.80;61.72;100703.88;4943728;28;20064;-80
2021/09/14 12:03:37;;;;;;;6.00;4.13;;;;;;;20.80;61.11;100709.53;4942823;28;20463;-81
2021/09/14 12:06:06;;;;;;;5.00;3.53;;;;;;;20.89;61.32;100714.69;4951489;28;20039;-81
2021/09/14 12:08:35;;;;;;;3.97;3.63;;;;;;;20.90;61.61;100719.88;4945585;28;20067;-81
2021/09/14 12:11:03;;;;;;;5.50;3.70;;;;;;;20.91;61.54;100715.84;4952680;28;20043;-80
2021/09/14 12:13:44;;;;;;;3.63;3.33;;;;;;;20.95;60.94;100716.59;4951688;28;20058;-80